sensor_id;sensor_type;location;lat;lon;timestamp;P1;durP1;ratioP1;P2;durP2;ratioP2
9906;SDS011;4992;51.628;6.664;2023-04-25T00:01:14;10.97;;;5.77;;
9906;SDS011;4992;51.628;6.664;2023-04-25T00:03:40;13.53;;;5.53;;
9906;SDS011;4992;51.628;6.664;2023-04-25T00:06:06;10.10;;;5.03;;
9906;SDS011;4992;51.628;6.664;2023-04-25T00:08:32;9.87;;;5.00;;
9906;SDS011;4992;51.628;6.664;2023-04-25T00:10:58;11.23;;;4.47;;
9906;SDS011;4992;51.628;6.664;2023-04-25T00:13:25;9.70;;;4.90;;
9906;SDS011;4992;51.628;6.664;2023-04-25T00:15:51;8.70;;;4.97;;
9906;SDS011;4992;51.628;6.664;2023-04-25T00:18:18;9.40;;;4.70;;
9906;SDS011;4992;51.628;6.664;2023-04-25T00:20:44;9.23;;;4.40;;
9906;SDS011;4992;51.628;6.664;2023-04-25T00:23:12;9.17;;;4.80;;
9906;SDS011;4992;51.628;6.664;2023-04-25T00:25:42;13.67;;;5.43;;
9906;SDS011;4992;51.628;6.664;2023-04-25T00:28:08;9.93;;;4.57;;
9906;SDS011;4992;51.628;6.664;2023-04-25T00:30:34;12.33;;;4.37;;
9906;SDS011;4992;51.628;6.664;2023-04-25T00:33:00;11.10;;;5.03;;
9906;SDS011;4992;51.628;6.664;2023-04-25T00:35:26;8.63;;;4.90;;
9906;SDS011;4992;51.628;6.664;2023-04-25T00:37:52;13.10;;;4.47;;
9906;SDS011;4992;51.628;6.664;2023-04-25T00:40:20;8.57;;;4.87;;
9906;SDS011;4992;51.628;6.664;2023-04-25T00:42:46;8.30;;;4.50;;
9906;SDS011;4992;51.628;6.664;2023-04-25T00:45:12;8.37;;;4.70;;
9906;SDS011;4992;51.628;6.664;2023-04-25T00:47:39;9.03;;;4.57;;
9906;SDS011;4992;51.628;6.664;2023-04-25T00:50:05;8.00;;;4.30;;
9906;SDS011;4992;51.628;6.664;2023-04-25T00:52:32;9.13;;;4.53;;
9906;SDS011;4992;51.628;6.664;2023-04-25T00:54:58;10.10;;;5.30;;
9906;SDS011;4992;51.628;6.664;2023-04-25T00:57:24;10.00;;;5.00;;
9906;SDS011;4992;51.628;6.664;2023-04-25T00:59:50;10.70;;;4.87;;
9906;SDS011;4992;51.628;6.664;2023-04-25T01:02:17;10.17;;;4.60;;
9906;SDS011;4992;51.628;6.664;2023-04-25T01:04:43;10.97;;;4.90;;
9906;SDS011;4992;51.628;6.664;2023-04-25T01:07:10;9.00;;;4.97;;
9906;SDS011;4992;51.628;6.664;2023-04-25T01:09:36;11.97;;;5.00;;
9906;SDS011;4992;51.628;6.664;2023-04-25T01:12:02;9.30;;;4.73;;
9906;SDS011;4992;51.628;6.664;2023-04-25T01:14:28;11.53;;;5.03;;
9906;SDS011;4992;51.628;6.664;2023-04-25T01:16:54;10.37;;;4.60;;
9906;SDS011;4992;51.628;6.664;2023-04-25T01:19:21;11.37;;;5.00;;
9906;SDS011;4992;51.628;6.664;2023-04-25T01:21:47;9.87;;;4.83;;
9906;SDS011;4992;51.628;6.664;2023-04-25T01:24:13;6.30;;;4.23;;
9906;SDS011;4992;51.628;6.664;2023-04-25T01:26:39;10.30;;;4.40;;
9906;SDS011;4992;51.628;6.664;2023-04-25T01:29:09;9.90;;;4.40;;
9906;SDS011;4992;51.628;6.664;2023-04-25T01:31:35;10.80;;;5.00;;
9906;SDS011;4992;51.628;6.664;2023-04-25T01:34:01;8.10;;;4.43;;
9906;SDS011;4992;51.628;6.664;2023-04-25T01:36:28;8.17;;;4.47;;
9906;SDS011;4992;51.628;6.664;2023-04-25T01:38:54;9.43;;;4.60;;
9906;SDS011;4992;51.628;6.664;2023-04-25T01:41:20;8.77;;;4.40;;
9906;SDS011;4992;51.628;6.664;2023-04-25T01:43:48;9.63;;;5.00;;
9906;SDS011;4992;51.628;6.664;2023-04-25T01:46:14;10.10;;;4.50;;
9906;SDS011;4992;51.628;6.664;2023-04-25T01:48:40;9.33;;;4.43;;
9906;SDS011;4992;51.628;6.664;2023-04-25T01:51:06;6.17;;;4.23;;
9906;SDS011;4992;51.628;6.664;2023-04-25T01:53:32;12.27;;;5.10;;
9906;SDS011;4992;51.628;6.664;2023-04-25T01:55:58;14.33;;;5.30;;
9906;SDS011;4992;51.628;6.664;2023-04-25T01:58:24;13.80;;;5.03;;
9906;SDS011;4992;51.628;6.664;2023-04-25T02:00:50;13.40;;;5.37;;
9906;SDS011;4992;51.628;6.664;2023-04-25T02:03:16;6.90;;;4.80;;
9906;SDS011;4992;51.628;6.664;2023-04-25T02:05:42;6.90;;;4.47;;
9906;SDS011;4992;51.628;6.664;2023-04-25T02:08:08;6.37;;;4.10;;
9906;SDS011;4992;51.628;6.664;2023-04-25T02:10:34;11.27;;;5.40;;
9906;SDS011;4992;51.628;6.664;2023-04-25T02:13:01;7.77;;;5.00;;
9906;SDS011;4992;51.628;6.664;2023-04-25T02:15:27;10.97;;;4.77;;
9906;SDS011;4992;51.628;6.664;2023-04-25T02:17:53;9.60;;;4.97;;
9906;SDS011;4992;51.628;6.664;2023-04-25T02:20:20;12.47;;;5.33;;
9906;SDS011;4992;51.628;6.664;2023-04-25T02:22:46;10.83;;;4.43;;
9906;SDS011;4992;51.628;6.664;2023-04-25T02:25:12;9.27;;;4.90;;
9906;SDS011;4992;51.628;6.664;2023-04-25T02:27:38;14.13;;;5.23;;
9906;SDS011;4992;51.628;6.664;2023-04-25T02:30:05;13.30;;;4.73;;
9906;SDS011;4992;51.628;6.664;2023-04-25T02:32:31;8.43;;;5.00;;
9906;SDS011;4992;51.628;6.664;2023-04-25T02:34:59;10.07;;;5.00;;
9906;SDS011;4992;51.628;6.664;2023-04-25T02:37:28;11.27;;;5.10;;
9906;SDS011;4992;51.628;6.664;2023-04-25T02:39:54;14.40;;;4.80;;
9906;SDS011;4992;51.628;6.664;2023-04-25T02:42:20;10.73;;;4.43;;
9906;SDS011;4992;51.628;6.664;2023-04-25T02:44:46;11.87;;;4.57;;
9906;SDS011;4992;51.628;6.664;2023-04-25T02:47:12;9.87;;;4.80;;
9906;SDS011;4992;51.628;6.664;2023-04-25T02:49:38;15.77;;;5.03;;
9906;SDS011;4992;51.628;6.664;2023-04-25T02:52:04;11.13;;;5.40;;
9906;SDS011;4992;51.628;6.664;2023-04-25T02:54:30;12.37;;;4.80;;
9906;SDS011;4992;51.628;6.664;2023-04-25T02:56:56;11.43;;;4.17;;
9906;SDS011;4992;51.628;6.664;2023-04-25T02:59:22;10.60;;;4.80;;
9906;SDS011;4992;51.628;6.664;2023-04-25T03:01:48;8.50;;;4.63;;
9906;SDS011;4992;51.628;6.664;2023-04-25T03:04:14;11.03;;;4.40;;
9906;SDS011;4992;51.628;6.664;2023-04-25T03:06:40;13.30;;;4.63;;
9906;SDS011;4992;51.628;6.664;2023-04-25T03:09:06;12.40;;;4.47;;
9906;SDS011;4992;51.628;6.664;2023-04-25T03:11:32;14.83;;;5.63;;
9906;SDS011;4992;51.628;6.664;2023-04-25T03:13:58;13.43;;;5.50;;
9906;SDS011;4992;51.628;6.664;2023-04-25T03:16:24;13.80;;;4.70;;
9906;SDS011;4992;51.628;6.664;2023-04-25T03:18:50;10.53;;;4.80;;
9906;SDS011;4992;51.628;6.664;2023-04-25T03:21:16;12.80;;;5.30;;
9906;SDS011;4992;51.628;6.664;2023-04-25T03:23:42;13.70;;;5.43;;
9906;SDS011;4992;51.628;6.664;2023-04-25T03:26:08;12.93;;;4.90;;
9906;SDS011;4992;51.628;6.664;2023-04-25T03:28:34;11.07;;;4.43;;
9906;SDS011;4992;51.628;6.664;2023-04-25T03:31:00;11.73;;;5.13;;
9906;SDS011;4992;51.628;6.664;2023-04-25T03:33:26;15.53;;;5.23;;
9906;SDS011;4992;51.628;6.664;2023-04-25T03:35:52;9.53;;;5.47;;
9906;SDS011;4992;51.628;6.664;2023-04-25T03:38:18;16.47;;;5.17;;
9906;SDS011;4992;51.628;6.664;2023-04-25T03:40:44;11.50;;;5.37;;
9906;SDS011;4992;51.628;6.664;2023-04-25T03:43:10;13.60;;;5.27;;
9906;SDS011;4992;51.628;6.664;2023-04-25T03:45:36;14.50;;;5.00;;
9906;SDS011;4992;51.628;6.664;2023-04-25T03:48:02;14.03;;;5.73;;
9906;SDS011;4992;51.628;6.664;2023-04-25T03:50:28;15.80;;;5.80;;
9906;SDS011;4992;51.628;6.664;2023-04-25T03:52:54;12.83;;;5.37;;
9906;SDS011;4992;51.628;6.664;2023-04-25T03:55:20;16.73;;;6.37;;
9906;SDS011;4992;51.628;6.664;2023-04-25T03:57:46;17.27;;;6.10;;
9906;SDS011;4992;51.628;6.664;2023-04-25T04:00:12;13.77;;;5.50;;
9906;SDS011;4992;51.628;6.664;2023-04-25T04:02:39;13.00;;;5.30;;
9906;SDS011;4992;51.628;6.664;2023-04-25T04:05:05;10.67;;;5.60;;
9906;SDS011;4992;51.628;6.664;2023-04-25T04:07:31;24.67;;;6.57;;
9906;SDS011;4992;51.628;6.664;2023-04-25T04:09:58;15.33;;;5.83;;
9906;SDS011;4992;51.628;6.664;2023-04-25T04:12:24;14.10;;;5.93;;
9906;SDS011;4992;51.628;6.664;2023-04-25T04:14:50;17.73;;;6.57;;
9906;SDS011;4992;51.628;6.664;2023-04-25T04:17:16;15.30;;;6.03;;
9906;SDS011;4992;51.628;6.664;2023-04-25T04:19:41;16.00;;;6.17;;
9906;SDS011;4992;51.628;6.664;2023-04-25T04:22:07;18.83;;;6.77;;
9906;SDS011;4992;51.628;6.664;2023-04-25T04:24:33;13.37;;;6.00;;
9906;SDS011;4992;51.628;6.664;2023-04-25T04:27:00;14.73;;;6.60;;
9906;SDS011;4992;51.628;6.664;2023-04-25T04:29:26;11.37;;;6.27;;
9906;SDS011;4992;51.628;6.664;2023-04-25T04:31:52;16.63;;;6.30;;
9906;SDS011;4992;51.628;6.664;2023-04-25T04:34:18;13.97;;;6.37;;
9906;SDS011;4992;51.628;6.664;2023-04-25T04:36:44;9.90;;;5.23;;
9906;SDS011;4992;51.628;6.664;2023-04-25T04:39:11;16.33;;;6.00;;
9906;SDS011;4992;51.628;6.664;2023-04-25T04:41:37;17.43;;;7.27;;
9906;SDS011;4992;51.628;6.664;2023-04-25T04:44:04;12.73;;;5.67;;
9906;SDS011;4992;51.628;6.664;2023-04-25T04:46:31;13.50;;;6.40;;
9906;SDS011;4992;51.628;6.664;2023-04-25T04:49:02;14.60;;;6.70;;
9906;SDS011;4992;51.628;6.664;2023-04-25T04:51:28;12.03;;;5.50;;
9906;SDS011;4992;51.628;6.664;2023-04-25T04:53:55;17.87;;;6.23;;
9906;SDS011;4992;51.628;6.664;2023-04-25T04:56:23;30.67;;;14.23;;
9906;SDS011;4992;51.628;6.664;2023-04-25T04:58:50;14.87;;;6.40;;
9906;SDS011;4992;51.628;6.664;2023-04-25T05:01:16;15.13;;;6.73;;
9906;SDS011;4992;51.628;6.664;2023-04-25T05:03:42;14.83;;;7.00;;
9906;SDS011;4992;51.628;6.664;2023-04-25T05:06:08;16.20;;;6.13;;
9906;SDS011;4992;51.628;6.664;2023-04-25T05:08:34;18.07;;;6.53;;
9906;SDS011;4992;51.628;6.664;2023-04-25T05:11:00;14.13;;;6.20;;
9906;SDS011;4992;51.628;6.664;2023-04-25T05:13:26;13.77;;;5.53;;
9906;SDS011;4992;51.628;6.664;2023-04-25T05:15:52;13.00;;;5.43;;
9906;SDS011;4992;51.628;6.664;2023-04-25T05:18:18;15.63;;;6.97;;
9906;SDS011;4992;51.628;6.664;2023-04-25T05:20:44;17.63;;;6.30;;
9906;SDS011;4992;51.628;6.664;2023-04-25T05:23:10;11.17;;;4.73;;
9906;SDS011;4992;51.628;6.664;2023-04-25T05:25:36;17.67;;;4.93;;
9906;SDS011;4992;51.628;6.664;2023-04-25T05:28:02;11.93;;;5.13;;
9906;SDS011;4992;51.628;6.664;2023-04-25T05:30:28;14.30;;;6.00;;
9906;SDS011;4992;51.628;6.664;2023-04-25T05:32:54;15.90;;;6.03;;
9906;SDS011;4992;51.628;6.664;2023-04-25T05:35:20;11.47;;;4.70;;
9906;SDS011;4992;51.628;6.664;2023-04-25T05:37:46;13.83;;;6.57;;
9906;SDS011;4992;51.628;6.664;2023-04-25T05:40:12;13.47;;;5.27;;
9906;SDS011;4992;51.628;6.664;2023-04-25T05:42:38;15.47;;;7.20;;
9906;SDS011;4992;51.628;6.664;2023-04-25T05:45:04;15.30;;;6.23;;
9906;SDS011;4992;51.628;6.664;2023-04-25T05:47:30;10.33;;;4.87;;
9906;SDS011;4992;51.628;6.664;2023-04-25T05:49:56;10.67;;;4.43;;
9906;SDS011;4992;51.628;6.664;2023-04-25T05:52:22;11.33;;;4.07;;
9906;SDS011;4992;51.628;6.664;2023-04-25T05:54:48;14.47;;;4.27;;
9906;SDS011;4992;51.628;6.664;2023-04-25T05:57:18;11.93;;;4.57;;
9906;SDS011;4992;51.628;6.664;2023-04-25T05:59:44;18.07;;;8.37;;
9906;SDS011;4992;51.628;6.664;2023-04-25T06:02:11;15.47;;;5.47;;
9906;SDS011;4992;51.628;6.664;2023-04-25T06:04:37;10.83;;;4.50;;
9906;SDS011;4992;51.628;6.664;2023-04-25T06:07:03;13.77;;;4.93;;
9906;SDS011;4992;51.628;6.664;2023-04-25T06:09:28;14.73;;;6.30;;
9906;SDS011;4992;51.628;6.664;2023-04-25T06:11:55;13.57;;;5.50;;
9906;SDS011;4992;51.628;6.664;2023-04-25T06:14:21;14.73;;;7.43;;
9906;SDS011;4992;51.628;6.664;2023-04-25T06:16:46;10.53;;;4.53;;
9906;SDS011;4992;51.628;6.664;2023-04-25T06:19:12;11.30;;;5.80;;
9906;SDS011;4992;51.628;6.664;2023-04-25T06:21:38;16.07;;;5.90;;
9906;SDS011;4992;51.628;6.664;2023-04-25T06:24:04;9.30;;;4.23;;
9906;SDS011;4992;51.628;6.664;2023-04-25T06:26:30;8.37;;;4.10;;
9906;SDS011;4992;51.628;6.664;2023-04-25T06:28:56;11.77;;;3.87;;
9906;SDS011;4992;51.628;6.664;2023-04-25T06:31:22;12.83;;;4.03;;
9906;SDS011;4992;51.628;6.664;2023-04-25T06:33:48;14.70;;;4.30;;
9906;SDS011;4992;51.628;6.664;2023-04-25T06:36:14;10.27;;;4.37;;
9906;SDS011;4992;51.628;6.664;2023-04-25T06:38:40;12.23;;;4.20;;
9906;SDS011;4992;51.628;6.664;2023-04-25T06:41:06;7.67;;;3.70;;
9906;SDS011;4992;51.628;6.664;2023-04-25T06:43:32;12.43;;;4.43;;
9906;SDS011;4992;51.628;6.664;2023-04-25T06:45:59;10.47;;;3.83;;
9906;SDS011;4992;51.628;6.664;2023-04-25T06:48:26;12.67;;;4.33;;
9906;SDS011;4992;51.628;6.664;2023-04-25T06:50:52;5.93;;;3.50;;
9906;SDS011;4992;51.628;6.664;2023-04-25T06:53:18;8.83;;;3.63;;
9906;SDS011;4992;51.628;6.664;2023-04-25T06:55:44;9.80;;;3.47;;
9906;SDS011;4992;51.628;6.664;2023-04-25T06:58:10;12.57;;;3.30;;
9906;SDS011;4992;51.628;6.664;2023-04-25T07:00:36;9.43;;;3.33;;
9906;SDS011;4992;51.628;6.664;2023-04-25T07:03:02;9.40;;;2.80;;
9906;SDS011;4992;51.628;6.664;2023-04-25T07:05:28;13.07;;;4.27;;
9906;SDS011;4992;51.628;6.664;2023-04-25T07:07:54;7.70;;;2.93;;
9906;SDS011;4992;51.628;6.664;2023-04-25T07:10:20;9.07;;;3.13;;
9906;SDS011;4992;51.628;6.664;2023-04-25T07:12:46;7.07;;;2.73;;
9906;SDS011;4992;51.628;6.664;2023-04-25T07:15:12;6.27;;;2.37;;
9906;SDS011;4992;51.628;6.664;2023-04-25T07:17:38;11.70;;;2.60;;
9906;SDS011;4992;51.628;6.664;2023-04-25T07:20:04;12.77;;;2.63;;
9906;SDS011;4992;51.628;6.664;2023-04-25T07:22:31;6.03;;;2.13;;
9906;SDS011;4992;51.628;6.664;2023-04-25T07:24:57;9.70;;;2.60;;
9906;SDS011;4992;51.628;6.664;2023-04-25T07:27:23;8.37;;;2.00;;
9906;SDS011;4992;51.628;6.664;2023-04-25T07:29:50;8.63;;;2.70;;
9906;SDS011;4992;51.628;6.664;2023-04-25T07:32:16;8.93;;;2.13;;
9906;SDS011;4992;51.628;6.664;2023-04-25T07:34:42;7.73;;;2.13;;
9906;SDS011;4992;51.628;6.664;2023-04-25T07:37:08;4.67;;;1.77;;
9906;SDS011;4992;51.628;6.664;2023-04-25T07:39:34;12.57;;;2.20;;
9906;SDS011;4992;51.628;6.664;2023-04-25T07:42:01;6.50;;;2.07;;
9906;SDS011;4992;51.628;6.664;2023-04-25T07:44:28;8.67;;;2.43;;
9906;SDS011;4992;51.628;6.664;2023-04-25T07:46:55;5.40;;;2.13;;
9906;SDS011;4992;51.628;6.664;2023-04-25T07:49:21;6.33;;;2.13;;
9906;SDS011;4992;51.628;6.664;2023-04-25T07:51:47;8.33;;;2.50;;
9906;SDS011;4992;51.628;6.664;2023-04-25T07:54:14;11.37;;;1.90;;
9906;SDS011;4992;51.628;6.664;2023-04-25T07:56:40;8.40;;;2.50;;
9906;SDS011;4992;51.628;6.664;2023-04-25T07:59:06;5.30;;;1.90;;
9906;SDS011;4992;51.628;6.664;2023-04-25T08:01:33;5.27;;;1.27;;
9906;SDS011;4992;51.628;6.664;2023-04-25T08:04:00;5.60;;;1.67;;
9906;SDS011;4992;51.628;6.664;2023-04-25T08:06:25;8.00;;;2.57;;
9906;SDS011;4992;51.628;6.664;2023-04-25T08:08:52;8.10;;;1.93;;
9906;SDS011;4992;51.628;6.664;2023-04-25T08:11:18;10.73;;;2.23;;
9906;SDS011;4992;51.628;6.664;2023-04-25T08:13:44;6.03;;;1.63;;
9906;SDS011;4992;51.628;6.664;2023-04-25T08:16:10;7.73;;;1.93;;
9906;SDS011;4992;51.628;6.664;2023-04-25T08:18:35;7.77;;;2.13;;
9906;SDS011;4992;51.628;6.664;2023-04-25T08:21:01;8.33;;;1.90;;
9906;SDS011;4992;51.628;6.664;2023-04-25T08:23:27;7.30;;;2.00;;
9906;SDS011;4992;51.628;6.664;2023-04-25T08:25:53;8.40;;;1.83;;
9906;SDS011;4992;51.628;6.664;2023-04-25T08:28:20;8.93;;;1.70;;
9906;SDS011;4992;51.628;6.664;2023-04-25T08:30:46;7.23;;;1.97;;
9906;SDS011;4992;51.628;6.664;2023-04-25T08:33:12;8.97;;;2.10;;
9906;SDS011;4992;51.628;6.664;2023-04-25T08:35:38;6.33;;;2.30;;
9906;SDS011;4992;51.628;6.664;2023-04-25T08:38:04;6.00;;;1.23;;
9906;SDS011;4992;51.628;6.664;2023-04-25T08:40:30;3.15;;;0.90;;
9906;SDS011;4992;51.628;6.664;2023-04-25T08:43:00;6.27;;;1.30;;
9906;SDS011;4992;51.628;6.664;2023-04-25T08:45:28;8.07;;;1.50;;
9906;SDS011;4992;51.628;6.664;2023-04-25T08:47:57;8.65;;;1.30;;
9906;SDS011;4992;51.628;6.664;2023-04-25T08:50:23;4.32;;;1.27;;
9906;SDS011;4992;51.628;6.664;2023-04-25T08:52:51;9.93;;;1.60;;
9906;SDS011;4992;51.628;6.664;2023-04-25T08:55:18;6.60;;;1.55;;
9906;SDS011;4992;51.628;6.664;2023-04-25T08:57:45;6.10;;;1.20;;
9906;SDS011;4992;51.628;6.664;2023-04-25T09:00:11;5.07;;;1.38;;
9906;SDS011;4992;51.628;6.664;2023-04-25T09:02:38;5.72;;;1.55;;
9906;SDS011;4992;51.628;6.664;2023-04-25T09:05:04;6.53;;;1.60;;
9906;SDS011;4992;51.628;6.664;2023-04-25T09:07:31;6.68;;;1.30;;
9906;SDS011;4992;51.628;6.664;2023-04-25T09:09:57;6.25;;;1.10;;
9906;SDS011;4992;51.628;6.664;2023-04-25T09:12:26;6.57;;;1.83;;
9906;SDS011;4992;51.628;6.664;2023-04-25T09:15:03;7.57;;;1.27;;
9906;SDS011;4992;51.628;6.664;2023-04-25T09:17:30;6.28;;;1.30;;
9906;SDS011;4992;51.628;6.664;2023-04-25T09:20:04;4.60;;;1.00;;
9906;SDS011;4992;51.628;6.664;2023-04-25T09:22:30;6.28;;;1.30;;
9906;SDS011;4992;51.628;6.664;2023-04-25T09:24:56;4.85;;;1.20;;
9906;SDS011;4992;51.628;6.664;2023-04-25T09:27:22;4.43;;;1.17;;
9906;SDS011;4992;51.628;6.664;2023-04-25T09:29:50;8.85;;;1.20;;
9906;SDS011;4992;51.628;6.664;2023-04-25T09:32:22;4.80;;;1.02;;
9906;SDS011;4992;51.628;6.664;2023-04-25T09:34:52;4.05;;;1.60;;
9906;SDS011;4992;51.628;6.664;2023-04-25T09:39:45;3.55;;;0.80;;
9906;SDS011;4992;51.628;6.664;2023-04-25T09:42:15;6.50;;;1.13;;
9906;SDS011;4992;51.628;6.664;2023-04-25T09:44:42;7.45;;;1.42;;
9906;SDS011;4992;51.628;6.664;2023-04-25T09:47:09;7.25;;;1.55;;
9906;SDS011;4992;51.628;6.664;2023-04-25T09:49:38;3.95;;;1.50;;
9906;SDS011;4992;51.628;6.664;2023-04-25T09:52:05;5.72;;;1.08;;
9906;SDS011;4992;51.628;6.664;2023-04-25T09:54:31;7.05;;;1.20;;
9906;SDS011;4992;51.628;6.664;2023-04-25T09:56:57;4.70;;;1.20;;
9906;SDS011;4992;51.628;6.664;2023-04-25T09:59:25;2.83;;;1.30;;
9906;SDS011;4992;51.628;6.664;2023-04-25T10:01:53;6.47;;;1.20;;
9906;SDS011;4992;51.628;6.664;2023-04-25T10:04:22;6.72;;;1.30;;
9906;SDS011;4992;51.628;6.664;2023-04-25T10:06:51;5.10;;;1.10;;
9906;SDS011;4992;51.628;6.664;2023-04-25T10:09:21;2.08;;;0.60;;
9906;SDS011;4992;51.628;6.664;2023-04-25T10:11:51;2.60;;;0.70;;
9906;SDS011;4992;51.628;6.664;2023-04-25T10:14:18;3.63;;;0.70;;
9906;SDS011;4992;51.628;6.664;2023-04-25T10:16:44;2.43;;;0.70;;
9906;SDS011;4992;51.628;6.664;2023-04-25T10:19:10;2.37;;;0.60;;
9906;SDS011;4992;51.628;6.664;2023-04-25T10:21:40;5.03;;;0.90;;
9906;SDS011;4992;51.628;6.664;2023-04-25T10:24:10;4.27;;;0.80;;
9906;SDS011;4992;51.628;6.664;2023-04-25T10:26:36;1.83;;;0.93;;
9906;SDS011;4992;51.628;6.664;2023-04-25T10:29:03;2.97;;;1.00;;
9906;SDS011;4992;51.628;6.664;2023-04-25T10:31:29;3.23;;;1.03;;
9906;SDS011;4992;51.628;6.664;2023-04-25T10:33:56;2.33;;;1.08;;
9906;SDS011;4992;51.628;6.664;2023-04-25T10:36:22;2.17;;;1.10;;
9906;SDS011;4992;51.628;6.664;2023-04-25T10:38:49;2.67;;;0.90;;
9906;SDS011;4992;51.628;6.664;2023-04-25T10:41:17;3.07;;;0.93;;
9906;SDS011;4992;51.628;6.664;2023-04-25T10:43:47;4.33;;;1.00;;
9906;SDS011;4992;51.628;6.664;2023-04-25T10:46:24;4.97;;;1.00;;
9906;SDS011;4992;51.628;6.664;2023-04-25T10:48:51;3.03;;;0.95;;
9906;SDS011;4992;51.628;6.664;2023-04-25T10:51:33;2.67;;;0.95;;
9906;SDS011;4992;51.628;6.664;2023-04-25T10:54:05;3.10;;;1.15;;
9906;SDS011;4992;51.628;6.664;2023-04-25T11:01:30;5.60;;;1.30;;
9906;SDS011;4992;51.628;6.664;2023-04-25T11:04:00;4.38;;;1.15;;
9906;SDS011;4992;51.628;6.664;2023-04-25T11:09:11;3.55;;;1.20;;
9906;SDS011;4992;51.628;6.664;2023-04-25T11:11:38;2.53;;;0.90;;
9906;SDS011;4992;51.628;6.664;2023-04-25T11:14:04;3.47;;;1.00;;
9906;SDS011;4992;51.628;6.664;2023-04-25T11:16:30;5.20;;;1.17;;
9906;SDS011;4992;51.628;6.664;2023-04-25T11:18:57;4.15;;;0.95;;
9906;SDS011;4992;51.628;6.664;2023-04-25T11:21:23;3.58;;;0.98;;
9906;SDS011;4992;51.628;6.664;2023-04-25T11:23:49;3.30;;;0.95;;
9906;SDS011;4992;51.628;6.664;2023-04-25T11:26:15;2.50;;;1.05;;
9906;SDS011;4992;51.628;6.664;2023-04-25T11:28:44;4.50;;;1.38;;
9906;SDS011;4992;51.628;6.664;2023-04-25T11:31:10;5.43;;;1.35;;
9906;SDS011;4992;51.628;6.664;2023-04-25T11:33:37;2.95;;;0.98;;
9906;SDS011;4992;51.628;6.664;2023-04-25T11:36:03;4.15;;;1.02;;
9906;SDS011;4992;51.628;6.664;2023-04-25T11:38:29;3.38;;;0.90;;
9906;SDS011;4992;51.628;6.664;2023-04-25T11:40:55;7.05;;;1.13;;
9906;SDS011;4992;51.628;6.664;2023-04-25T11:43:21;2.75;;;0.90;;
9906;SDS011;4992;51.628;6.664;2023-04-25T11:45:50;1.77;;;0.88;;
9906;SDS011;4992;51.628;6.664;2023-04-25T11:48:17;3.13;;;0.85;;
9906;SDS011;4992;51.628;6.664;2023-04-25T11:50:43;4.13;;;1.00;;
9906;SDS011;4992;51.628;6.664;2023-04-25T11:53:09;3.63;;;1.08;;
9906;SDS011;4992;51.628;6.664;2023-04-25T11:55:36;2.67;;;1.33;;
9906;SDS011;4992;51.628;6.664;2023-04-25T11:58:02;2.88;;;0.80;;
9906;SDS011;4992;51.628;6.664;2023-04-25T12:00:29;2.03;;;0.80;;
9906;SDS011;4992;51.628;6.664;2023-04-25T12:02:56;2.33;;;0.65;;
9906;SDS011;4992;51.628;6.664;2023-04-25T12:05:26;4.25;;;0.95;;
9906;SDS011;4992;51.628;6.664;2023-04-25T12:07:52;2.67;;;1.00;;
9906;SDS011;4992;51.628;6.664;2023-04-25T12:10:18;2.60;;;0.95;;
9906;SDS011;4992;51.628;6.664;2023-04-25T12:12:46;1.88;;;0.90;;
9906;SDS011;4992;51.628;6.664;2023-04-25T12:15:13;50.90;;;7.03;;
9906;SDS011;4992;51.628;6.664;2023-04-25T12:17:47;3.17;;;0.88;;
9906;SDS011;4992;51.628;6.664;2023-04-25T12:20:14;3.35;;;0.80;;
9906;SDS011;4992;51.628;6.664;2023-04-25T12:22:41;3.55;;;1.02;;
9906;SDS011;4992;51.628;6.664;2023-04-25T12:25:11;2.90;;;1.08;;
9906;SDS011;4992;51.628;6.664;2023-04-25T12:27:38;4.95;;;0.93;;
9906;SDS011;4992;51.628;6.664;2023-04-25T12:30:07;5.45;;;0.75;;
9906;SDS011;4992;51.628;6.664;2023-04-25T12:32:33;3.80;;;0.95;;
9906;SDS011;4992;51.628;6.664;2023-04-25T12:34:59;4.72;;;1.20;;
9906;SDS011;4992;51.628;6.664;2023-04-25T12:37:25;4.68;;;0.77;;
9906;SDS011;4992;51.628;6.664;2023-04-25T12:39:51;4.18;;;0.90;;
9906;SDS011;4992;51.628;6.664;2023-04-25T12:42:17;3.20;;;0.95;;
9906;SDS011;4992;51.628;6.664;2023-04-25T12:44:43;4.00;;;1.10;;
9906;SDS011;4992;51.628;6.664;2023-04-25T12:47:09;5.53;;;1.63;;
9906;SDS011;4992;51.628;6.664;2023-04-25T12:49:35;5.90;;;1.17;;
9906;SDS011;4992;51.628;6.664;2023-04-25T12:52:01;2.47;;;1.20;;
9906;SDS011;4992;51.628;6.664;2023-04-25T12:54:27;2.13;;;0.77;;
9906;SDS011;4992;51.628;6.664;2023-04-25T12:56:53;3.92;;;1.10;;
9906;SDS011;4992;51.628;6.664;2023-04-25T12:59:19;2.30;;;1.00;;
9906;SDS011;4992;51.628;6.664;2023-04-25T13:01:46;3.15;;;0.90;;
9906;SDS011;4992;51.628;6.664;2023-04-25T13:04:12;4.03;;;1.20;;
9906;SDS011;4992;51.628;6.664;2023-04-25T13:06:38;3.45;;;0.88;;
9906;SDS011;4992;51.628;6.664;2023-04-25T13:09:04;1.05;;;0.50;;
9906;SDS011;4992;51.628;6.664;2023-04-25T13:11:31;1.55;;;0.40;;
9906;SDS011;4992;51.628;6.664;2023-04-25T13:13:57;2.65;;;0.57;;
9906;SDS011;4992;51.628;6.664;2023-04-25T13:16:23;1.08;;;0.38;;
9906;SDS011;4992;51.628;6.664;2023-04-25T13:18:49;4.13;;;0.80;;
9906;SDS011;4992;51.628;6.664;2023-04-25T13:21:15;2.25;;;0.60;;
9906;SDS011;4992;51.628;6.664;2023-04-25T13:23:41;3.03;;;0.80;;
9906;SDS011;4992;51.628;6.664;2023-04-25T13:26:11;3.08;;;0.60;;
9906;SDS011;4992;51.628;6.664;2023-04-25T13:28:37;2.45;;;0.50;;
9906;SDS011;4992;51.628;6.664;2023-04-25T13:31:03;1.98;;;0.80;;
9906;SDS011;4992;51.628;6.664;2023-04-25T13:33:29;2.63;;;0.70;;
9906;SDS011;4992;51.628;6.664;2023-04-25T13:35:55;4.03;;;0.73;;
9906;SDS011;4992;51.628;6.664;2023-04-25T13:38:22;1.98;;;0.82;;
9906;SDS011;4992;51.628;6.664;2023-04-25T13:40:49;2.20;;;0.65;;
9906;SDS011;4992;51.628;6.664;2023-04-25T13:43:17;3.25;;;0.70;;
9906;SDS011;4992;51.628;6.664;2023-04-25T13:45:42;2.75;;;0.47;;
9906;SDS011;4992;51.628;6.664;2023-04-25T13:48:08;2.85;;;0.80;;
9906;SDS011;4992;51.628;6.664;2023-04-25T13:50:34;3.63;;;0.50;;
9906;SDS011;4992;51.628;6.664;2023-04-25T13:53:00;2.13;;;0.63;;
9906;SDS011;4992;51.628;6.664;2023-04-25T13:55:26;2.85;;;0.50;;
9906;SDS011;4992;51.628;6.664;2023-04-25T13:57:52;1.63;;;0.60;;
9906;SDS011;4992;51.628;6.664;2023-04-25T14:00:18;4.95;;;0.80;;
9906;SDS011;4992;51.628;6.664;2023-04-25T14:02:45;1.35;;;0.75;;
9906;SDS011;4992;51.628;6.664;2023-04-25T14:05:11;3.22;;;0.80;;
9906;SDS011;4992;51.628;6.664;2023-04-25T14:07:37;4.35;;;0.80;;
9906;SDS011;4992;51.628;6.664;2023-04-25T14:10:04;3.72;;;0.93;;
9906;SDS011;4992;51.628;6.664;2023-04-25T14:12:30;4.03;;;1.05;;
9906;SDS011;4992;51.628;6.664;2023-04-25T14:14:57;2.35;;;0.73;;
9906;SDS011;4992;51.628;6.664;2023-04-25T14:17:23;4.28;;;0.80;;
9906;SDS011;4992;51.628;6.664;2023-04-25T14:19:49;4.18;;;1.30;;
9906;SDS011;4992;51.628;6.664;2023-04-25T14:22:15;3.85;;;0.95;;
9906;SDS011;4992;51.628;6.664;2023-04-25T14:24:41;2.60;;;0.88;;
9906;SDS011;4992;51.628;6.664;2023-04-25T14:27:07;4.95;;;1.40;;
9906;SDS011;4992;51.628;6.664;2023-04-25T14:29:33;2.97;;;0.82;;
9906;SDS011;4992;51.628;6.664;2023-04-25T14:31:59;3.80;;;0.90;;
9906;SDS011;4992;51.628;6.664;2023-04-25T14:34:25;2.80;;;1.05;;
9906;SDS011;4992;51.628;6.664;2023-04-25T14:36:52;2.65;;;0.95;;
9906;SDS011;4992;51.628;6.664;2023-04-25T14:39:18;4.68;;;0.93;;
9906;SDS011;4992;51.628;6.664;2023-04-25T14:41:44;3.58;;;0.80;;
9906;SDS011;4992;51.628;6.664;2023-04-25T14:44:10;4.03;;;0.82;;
9906;SDS011;4992;51.628;6.664;2023-04-25T14:46:36;3.33;;;0.90;;
9906;SDS011;4992;51.628;6.664;2023-04-25T14:49:02;2.55;;;0.50;;
9906;SDS011;4992;51.628;6.664;2023-04-25T14:51:28;1.60;;;0.80;;
9906;SDS011;4992;51.628;6.664;2023-04-25T14:53:55;3.22;;;0.90;;
9906;SDS011;4992;51.628;6.664;2023-04-25T14:56:21;2.42;;;0.75;;
9906;SDS011;4992;51.628;6.664;2023-04-25T14:58:47;5.93;;;0.80;;
9906;SDS011;4992;51.628;6.664;2023-04-25T15:01:13;3.75;;;1.00;;
9906;SDS011;4992;51.628;6.664;2023-04-25T15:03:40;3.55;;;0.90;;
9906;SDS011;4992;51.628;6.664;2023-04-25T15:06:06;4.45;;;0.82;;
9906;SDS011;4992;51.628;6.664;2023-04-25T15:08:33;2.90;;;0.90;;
9906;SDS011;4992;51.628;6.664;2023-04-25T15:10:59;1.55;;;0.68;;
9906;SDS011;4992;51.628;6.664;2023-04-25T15:13:25;1.55;;;0.70;;
9906;SDS011;4992;51.628;6.664;2023-04-25T15:15:51;3.45;;;0.75;;